createdAt,value
2023-09-06T00:01:05.576Z,22.64
2023-09-06T00:03:34.128Z,23.08
2023-09-06T00:06:01.758Z,22.42
2023-09-06T00:08:29.390Z,22.96
2023-09-06T00:10:57.307Z,22.35
2023-09-06T00:13:24.781Z,22.44
2023-09-06T00:15:52.326Z,22.61
2023-09-06T00:18:20.098Z,22.22
2023-09-06T00:20:47.496Z,22.53
2023-09-06T00:23:16.051Z,21.97
2023-09-06T00:25:45.475Z,22.89
2023-09-06T00:28:14.186Z,22.40
2023-09-06T00:30:45.676Z,22.62
2023-09-06T00:33:14.979Z,22.51
2023-09-06T00:35:42.411Z,22.52
2023-09-06T00:38:09.926Z,22.69
2023-09-06T00:40:38.808Z,22.48
2023-09-06T00:43:07.459Z,22.60
2023-09-06T00:45:45.317Z,22.84
2023-09-06T00:48:14.413Z,23.21
2023-09-06T00:50:42.364Z,22.47
2023-09-06T00:53:10.206Z,21.86
2023-09-06T00:55:42.360Z,21.31
2023-09-06T00:58:10.286Z,21.21
2023-09-06T01:00:38.216Z,22.12
2023-09-06T01:03:06.277Z,21.78
2023-09-06T01:05:41.288Z,22.06
2023-09-06T01:08:12.783Z,22.44
2023-09-06T01:10:40.239Z,22.85
2023-09-06T01:13:07.953Z,22.74
2023-09-06T01:15:37.161Z,23.25
2023-09-06T01:18:06.069Z,22.99
2023-09-06T01:20:44.181Z,22.40
2023-09-06T01:23:34.849Z,22.69
2023-09-06T01:26:03.120Z,22.12
2023-09-06T01:28:31.781Z,22.26
2023-09-06T01:31:01.507Z,22.33
2023-09-06T01:33:30.377Z,22.03
2023-09-06T01:35:58.681Z,21.83
2023-09-06T01:38:26.536Z,22.47
2023-09-06T01:40:54.742Z,22.29
2023-09-06T01:43:22.568Z,22.47
2023-09-06T01:45:52.151Z,22.26
2023-09-06T01:48:22.666Z,22.10
2023-09-06T01:50:50.732Z,21.91
2023-09-06T01:53:18.216Z,21.54
2023-09-06T01:55:45.637Z,22.07
2023-09-06T01:58:13.868Z,21.79
2023-09-06T02:00:41.673Z,22.44
2023-09-06T02:03:11.528Z,22.27
2023-09-06T02:05:40.813Z,22.27
2023-09-06T02:08:09.150Z,22.82
2023-09-06T02:10:36.950Z,22.79
2023-09-06T02:13:06.340Z,22.43
2023-09-06T02:15:33.788Z,22.28
2023-09-06T02:18:16.765Z,22.12
2023-09-06T02:20:45.755Z,22.41
2023-09-06T02:23:13.346Z,22.07
2023-09-06T02:25:41.070Z,22.34
2023-09-06T02:28:09.846Z,22.29
2023-09-06T02:30:40.288Z,21.55
2023-09-06T02:33:11.097Z,21.63
2023-09-06T02:35:41.934Z,22.37
2023-09-06T02:38:11.966Z,21.29
2023-09-06T02:40:44.112Z,21.14
2023-09-06T02:43:14.852Z,21.78
2023-09-06T02:45:51.125Z,21.04
2023-09-06T02:48:20.974Z,21.65
2023-09-06T02:50:49.107Z,21.94
2023-09-06T02:53:21.505Z,22.27
2023-09-06T02:55:53.328Z,21.59
2023-09-06T02:58:25.675Z,21.65
2023-09-06T03:01:00.067Z,21.53
2023-09-06T03:03:28.993Z,21.59
2023-09-06T03:05:59.082Z,21.96
2023-09-06T03:08:29.714Z,21.43
2023-09-06T03:10:58.356Z,21.84
2023-09-06T03:13:26.245Z,21.77
2023-09-06T03:15:55.532Z,21.43
2023-09-06T03:18:24.807Z,21.72
2023-09-06T03:20:56.633Z,21.91
2023-09-06T03:23:25.769Z,22.21
2023-09-06T03:25:59.259Z,21.94
2023-09-06T03:28:29.774Z,21.50
2023-09-06T03:31:01.053Z,22.34
2023-09-06T03:33:29.679Z,21.82
2023-09-06T03:35:57.568Z,21.82
2023-09-06T03:38:27.581Z,21.06
2023-09-06T03:40:57.155Z,21.80
2023-09-06T03:43:32.025Z,20.93
2023-09-06T03:46:08.643Z,22.09
2023-09-06T03:48:37.021Z,21.56
2023-09-06T03:51:05.862Z,22.14
2023-09-06T03:53:35.079Z,22.06
2023-09-06T03:56:02.649Z,21.69
2023-09-06T03:58:35.414Z,21.69
2023-09-06T04:01:05.353Z,22.07
2023-09-06T04:03:34.424Z,21.64
2023-09-06T04:06:04.379Z,21.80
2023-09-06T04:08:34.999Z,21.32
2023-09-06T04:11:03.264Z,21.47
2023-09-06T04:13:30.829Z,21.89
2023-09-06T04:15:58.362Z,21.32
2023-09-06T04:18:26.906Z,20.98
2023-09-06T04:20:54.449Z,20.46
2023-09-06T04:23:22.300Z,20.69
2023-09-06T04:25:50.929Z,19.97
2023-09-06T04:28:22.196Z,20.51
2023-09-06T04:30:50.195Z,20.81
2023-09-06T04:33:18.719Z,20.38
2023-09-06T04:35:48.612Z,20.80
2023-09-06T04:38:18.129Z,20.60
2023-09-06T04:40:47.608Z,21.62
2023-09-06T04:43:19.571Z,21.54
2023-09-06T04:45:50.629Z,20.76
2023-09-06T04:48:19.012Z,21.04
2023-09-06T04:50:48.471Z,21.48
2023-09-06T04:53:19.198Z,21.28
2023-09-06T04:55:51.222Z,21.01
2023-09-06T04:58:19.667Z,21.50
2023-09-06T05:00:49.374Z,21.34
2023-09-06T05:03:20.994Z,21.83
2023-09-06T05:05:52.355Z,21.66
2023-09-06T05:08:21.314Z,21.49
2023-09-06T05:10:52.957Z,21.30
2023-09-06T05:13:21.422Z,21.43
2023-09-06T05:15:49.162Z,21.57
2023-09-06T05:18:17.587Z,21.59
2023-09-06T05:20:45.353Z,22.21
2023-09-06T05:23:16.313Z,22.48
2023-09-06T05:25:45.163Z,22.04
2023-09-06T05:28:16.024Z,22.53
2023-09-06T05:30:45.687Z,22.69
2023-09-06T05:33:15.155Z,23.24
2023-09-06T05:35:43.929Z,23.33
2023-09-06T05:38:11.856Z,22.50
2023-09-06T05:40:44.611Z,22.27
2023-09-06T05:43:12.691Z,23.55
2023-09-06T05:45:40.874Z,23.29
2023-09-06T05:48:11.689Z,23.20
2023-09-06T05:50:40.319Z,24.57
2023-09-06T05:53:08.172Z,23.96
2023-09-06T05:55:35.692Z,24.75
2023-09-06T05:58:03.938Z,24.63
2023-09-06T06:00:32.782Z,24.42
2023-09-06T06:03:03.223Z,23.67
2023-09-06T06:05:30.794Z,24.19
2023-09-06T06:07:59.146Z,23.95
2023-09-06T06:10:30.586Z,24.40
2023-09-06T06:12:58.146Z,23.91
2023-09-06T06:15:26.722Z,23.48
2023-09-06T06:17:54.511Z,24.13
2023-09-06T06:20:30.846Z,24.07
2023-09-06T06:23:06.542Z,24.03
2023-09-06T06:25:34.017Z,24.06
2023-09-06T06:28:01.542Z,24.01
2023-09-06T06:30:29.525Z,24.16
2023-09-06T06:32:57.232Z,24.34
2023-09-06T06:35:24.726Z,24.25
2023-09-06T06:37:52.510Z,24.65
2023-09-06T06:40:19.987Z,24.72
2023-09-06T06:42:47.494Z,24.81
2023-09-06T06:45:18.072Z,24.85
2023-09-06T06:47:45.863Z,25.10
2023-09-06T06:50:13.515Z,25.20
2023-09-06T06:52:45.615Z,25.21
2023-09-06T06:55:13.556Z,25.72
2023-09-06T06:57:41.435Z,25.60
2023-09-06T07:00:12.524Z,25.84
2023-09-06T07:02:40.455Z,25.74
2023-09-06T07:05:09.215Z,26.51
2023-09-06T07:07:36.769Z,27.14
2023-09-06T07:10:04.485Z,27.28
2023-09-06T07:12:32.306Z,27.49
2023-09-06T07:14:59.812Z,27.68
2023-09-06T07:17:27.427Z,27.49
2023-09-06T07:19:55.400Z,27.13
2023-09-06T07:22:23.030Z,27.73
2023-09-06T07:24:51.744Z,27.75
2023-09-06T07:27:19.473Z,27.56
2023-09-06T07:29:46.734Z,28.21
2023-09-06T07:32:14.003Z,28.23
2023-09-06T07:34:41.480Z,29.33
2023-09-06T07:37:08.709Z,29.06
2023-09-06T07:39:35.976Z,29.31
2023-09-06T07:42:05.123Z,29.70
2023-09-06T07:44:33.840Z,29.66
2023-09-06T07:47:01.480Z,30.03
2023-09-06T07:49:31.545Z,29.45
2023-09-06T07:51:58.937Z,29.82
2023-09-06T07:54:26.345Z,30.53
2023-09-06T07:56:53.986Z,30.46
2023-09-06T07:59:23.596Z,31.13
2023-09-06T08:01:52.438Z,30.93
2023-09-06T08:04:20.724Z,30.84
2023-09-06T08:06:48.392Z,31.33
2023-09-06T08:09:15.866Z,31.82
2023-09-06T08:11:43.768Z,31.46
2023-09-06T08:14:11.195Z,31.92
2023-09-06T08:16:38.955Z,31.70
2023-09-06T08:19:06.736Z,32.14
2023-09-06T08:21:35.677Z,32.37
2023-09-06T08:24:03.670Z,32.28
2023-09-06T08:26:31.441Z,32.20
2023-09-06T08:28:59.382Z,32.77
2023-09-06T08:31:27.086Z,33.48
2023-09-06T08:33:55.128Z,33.45
2023-09-06T08:36:22.879Z,33.91
2023-09-06T08:38:50.553Z,33.81
2023-09-06T08:41:18.735Z,33.32
2023-09-06T08:43:46.406Z,33.65
2023-09-06T08:46:28.294Z,34.10
2023-09-06T08:48:57.354Z,34.42
2023-09-06T08:51:25.728Z,34.48
2023-09-06T08:53:53.773Z,34.39
2023-09-06T08:56:21.734Z,34.81
2023-09-06T08:58:49.246Z,34.91
2023-09-06T09:01:16.995Z,34.57
2023-09-06T09:03:44.949Z,34.48
2023-09-06T09:06:12.725Z,34.86
2023-09-06T09:08:40.235Z,35.08
2023-09-06T09:11:16.306Z,35.07
2023-09-06T09:13:44.042Z,35.02
2023-09-06T09:16:16.754Z,35.05
2023-09-06T09:18:46.791Z,35.31
2023-09-06T09:21:15.051Z,35.18
2023-09-06T09:23:48.108Z,35.34
2023-09-06T09:26:17.439Z,36.05
2023-09-06T09:28:44.859Z,35.44
2023-09-06T09:31:14.733Z,35.20
2023-09-06T09:33:46.134Z,36.01
2023-09-06T09:36:18.131Z,36.48
2023-09-06T09:38:50.035Z,36.72
2023-09-06T09:41:17.314Z,36.92
2023-09-06T09:43:44.590Z,37.08
2023-09-06T09:46:12.220Z,37.10
2023-09-06T09:48:40.698Z,37.31
2023-09-06T09:51:09.162Z,37.47
2023-09-06T09:53:37.105Z,37.41
2023-09-06T09:56:08.180Z,37.56
2023-09-06T09:58:36.050Z,38.05
2023-09-06T10:01:06.671Z,37.76
2023-09-06T10:03:37.545Z,37.56
2023-09-06T10:06:05.073Z,37.98
2023-09-06T10:08:32.730Z,38.04
2023-09-06T10:11:00.241Z,38.24
2023-09-06T10:13:28.967Z,38.58
2023-09-06T10:15:58.090Z,38.69
2023-09-06T10:18:25.804Z,38.42
2023-09-06T10:20:53.052Z,38.69
2023-09-06T10:23:20.268Z,38.48
2023-09-06T10:25:51.810Z,38.35
2023-09-06T10:28:24.297Z,38.33
2023-09-06T10:30:56.021Z,38.15
2023-09-06T10:33:37.172Z,38.27
2023-09-06T10:36:10.046Z,38.28
2023-09-06T10:38:58.873Z,38.13
2023-09-06T10:41:27.710Z,37.94
2023-09-06T10:43:56.901Z,38.00
2023-09-06T10:46:27.899Z,38.33
2023-09-06T10:49:14.193Z,38.35
2023-09-06T10:51:56.774Z,38.50
2023-09-06T10:54:38.915Z,38.49
2023-09-06T10:57:07.101Z,38.63
2023-09-06T10:59:37.593Z,38.46
2023-09-06T11:02:08.700Z,38.58
2023-09-06T11:04:36.667Z,38.63
2023-09-06T11:07:11.189Z,38.85
2023-09-06T11:09:44.459Z,38.76
2023-09-06T11:12:12.759Z,38.91
2023-09-06T11:14:41.173Z,39.01
2023-09-06T11:17:08.512Z,38.87
2023-09-06T11:19:38.879Z,39.00
2023-09-06T11:22:07.478Z,38.96
2023-09-06T11:24:36.242Z,38.93
2023-09-06T11:27:23.526Z,38.62
2023-09-06T11:29:58.886Z,38.99
2023-09-06T11:32:28.024Z,38.87
2023-09-06T11:34:55.776Z,38.60
2023-09-06T11:37:23.099Z,38.48
2023-09-06T11:39:51.046Z,38.96
2023-09-06T11:42:21.168Z,39.06
2023-09-06T11:44:56.327Z,39.25
2023-09-06T11:47:24.816Z,39.17
2023-09-06T11:49:52.243Z,38.47
2023-09-06T11:52:20.430Z,39.17
2023-09-06T11:54:53.888Z,38.99
2023-09-06T11:57:24.995Z,39.06
2023-09-06T11:59:59.125Z,38.78
2023-09-06T12:02:31.588Z,39.02
2023-09-06T12:05:04.605Z,38.83
2023-09-06T12:07:34.900Z,38.28
2023-09-06T12:10:05.985Z,39.07
2023-09-06T12:12:43.322Z,39.37
2023-09-06T12:15:20.889Z,39.04
2023-09-06T12:17:48.402Z,39.07
2023-09-06T12:20:25.026Z,38.89
2023-09-06T12:22:53.155Z,39.22
2023-09-06T12:25:21.129Z,39.26
2023-09-06T12:27:48.558Z,38.27
2023-09-06T12:30:19.966Z,38.64
2023-09-06T12:32:47.689Z,38.34
2023-09-06T12:35:16.719Z,38.43
2023-09-06T12:37:44.090Z,38.58
2023-09-06T12:40:14.429Z,38.44
2023-09-06T12:42:42.355Z,38.63
2023-09-06T12:45:10.057Z,38.36
2023-09-06T12:47:37.957Z,38.34
2023-09-06T12:50:07.278Z,38.68
2023-09-06T12:52:34.989Z,38.54
2023-09-06T12:55:02.835Z,38.84
2023-09-06T12:57:30.097Z,38.54
2023-09-06T13:00:00.314Z,38.97
2023-09-06T13:02:28.712Z,38.78
2023-09-06T13:04:56.245Z,39.01
2023-09-06T13:07:23.653Z,39.00
2023-09-06T13:09:51.870Z,38.76
2023-09-06T13:12:19.319Z,38.73
2023-09-06T13:14:46.561Z,38.86
2023-09-06T13:17:14.082Z,38.76
2023-09-06T13:19:41.792Z,38.94
2023-09-06T13:22:09.087Z,39.13
2023-09-06T13:24:36.654Z,38.83
2023-09-06T13:27:07.499Z,38.78
2023-09-06T13:29:34.922Z,38.69
2023-09-06T13:32:02.845Z,39.03
2023-09-06T13:34:30.378Z,38.62
2023-09-06T13:36:57.677Z,39.08
2023-09-06T13:39:25.759Z,38.34
2023-09-06T13:41:53.020Z,38.58
2023-09-06T13:44:21.287Z,38.29
2023-09-06T13:46:49.078Z,37.73
2023-09-06T13:49:16.288Z,38.03
2023-09-06T13:51:43.580Z,38.06
2023-09-06T13:54:11.299Z,38.34
2023-09-06T13:56:38.502Z,38.63
2023-09-06T13:59:05.916Z,38.21
2023-09-06T14:01:33.665Z,38.03
2023-09-06T14:04:01.335Z,38.10
2023-09-06T14:06:28.649Z,38.11
2023-09-06T14:08:55.879Z,38.31
2023-09-06T14:11:23.612Z,38.32
2023-09-06T14:16:54.304Z,37.72
2023-09-06T14:22:43.377Z,37.70
2023-09-06T14:25:29.297Z,37.58
2023-09-06T14:27:56.827Z,37.51
2023-09-06T14:30:24.268Z,37.77
2023-09-06T14:32:51.540Z,38.00
2023-09-06T14:35:19.096Z,38.07
2023-09-06T14:37:46.292Z,38.03
2023-09-06T14:40:13.881Z,38.12
2023-09-06T14:42:42.935Z,38.11
2023-09-06T14:45:10.504Z,37.89
2023-09-06T14:47:37.840Z,38.15
2023-09-06T14:50:05.629Z,38.26
2023-09-06T14:52:33.093Z,37.85
2023-09-06T14:55:00.460Z,37.95
2023-09-06T14:57:27.942Z,37.82
2023-09-06T14:59:55.423Z,38.09
2023-09-06T15:02:24.754Z,37.76
2023-09-06T15:04:53.519Z,37.62
2023-09-06T15:07:21.450Z,37.99
2023-09-06T15:09:48.937Z,37.38
2023-09-06T15:12:17.622Z,37.57
2023-09-06T15:14:45.606Z,37.57
2023-09-06T15:17:12.823Z,37.83
2023-09-06T15:19:41.114Z,37.59
2023-09-06T15:22:08.331Z,37.65
2023-09-06T15:24:36.417Z,37.46
2023-09-06T15:27:06.077Z,37.43
2023-09-06T15:29:33.651Z,37.70
2023-09-06T15:32:01.867Z,37.59
2023-09-06T15:34:30.312Z,37.80
2023-09-06T15:36:58.107Z,37.47
2023-09-06T15:39:25.683Z,37.61
2023-09-06T15:41:53.837Z,37.35
2023-09-06T15:44:22.198Z,37.29
2023-09-06T15:46:50.197Z,37.29
2023-09-06T15:49:18.827Z,37.18
2023-09-06T15:51:46.172Z,37.16
2023-09-06T15:54:13.529Z,37.27
2023-09-06T15:56:44.353Z,37.17
2023-09-06T15:59:12.632Z,36.76
2023-09-06T16:01:40.271Z,36.93
2023-09-06T16:04:08.482Z,37.13
2023-09-06T16:06:36.219Z,36.45
2023-09-06T16:09:15.585Z,36.35
2023-09-06T16:11:43.746Z,36.29
2023-09-06T16:14:11.500Z,36.41
2023-09-06T16:16:42.279Z,36.73
2023-09-06T16:19:13.831Z,36.15
2023-09-06T16:21:42.203Z,36.40
2023-09-06T16:24:12.242Z,36.10
2023-09-06T16:26:40.468Z,36.26
2023-09-06T16:29:11.691Z,36.41
2023-09-06T16:31:42.042Z,36.16
2023-09-06T16:34:15.810Z,36.08
2023-09-06T16:36:47.110Z,35.61
2023-09-06T16:39:16.080Z,35.82
2023-09-06T16:41:46.819Z,35.60
2023-09-06T16:44:14.840Z,35.25
2023-09-06T16:46:42.897Z,35.54
2023-09-06T16:49:11.069Z,35.44
2023-09-06T16:51:39.167Z,35.10
2023-09-06T16:54:07.481Z,35.10
2023-09-06T16:56:35.076Z,35.62
2023-09-06T16:59:02.304Z,35.27
2023-09-06T17:01:30.047Z,34.79
2023-09-06T17:03:58.833Z,35.19
2023-09-06T17:06:28.035Z,34.57
2023-09-06T17:08:55.713Z,34.66
2023-09-06T17:11:27.825Z,34.87
2023-09-06T17:13:55.595Z,34.94
2023-09-06T17:16:23.647Z,34.46
2023-09-06T17:18:51.526Z,34.43
2023-09-06T17:21:19.005Z,33.83
2023-09-06T17:24:02.384Z,33.89
2023-09-06T17:26:31.741Z,33.63
2023-09-06T17:29:01.926Z,33.36
2023-09-06T17:31:30.002Z,32.79
2023-09-06T17:33:57.602Z,32.43
2023-09-06T17:36:26.569Z,32.41
2023-09-06T17:38:55.399Z,32.17
2023-09-06T17:41:24.616Z,32.72
2023-09-06T17:43:53.075Z,32.92
2023-09-06T17:46:26.696Z,32.70
2023-09-06T17:48:56.201Z,32.66
2023-09-06T17:51:24.196Z,31.79
2023-09-06T17:53:52.311Z,31.69
2023-09-06T17:56:27.031Z,31.58
2023-09-06T17:58:55.668Z,31.60
2023-09-06T18:01:24.270Z,31.23
2023-09-06T18:03:58.862Z,31.04
2023-09-06T18:06:27.916Z,31.20
2023-09-06T18:08:59.555Z,30.74
2023-09-06T18:11:27.775Z,30.78
2023-09-06T18:13:55.676Z,30.51
2023-09-06T18:16:24.475Z,30.89
2023-09-06T18:18:52.292Z,30.01
2023-09-06T18:21:19.839Z,30.47
2023-09-06T18:23:49.566Z,29.94
2023-09-06T18:26:20.554Z,30.13
2023-09-06T18:28:51.027Z,30.47
2023-09-06T18:31:22.695Z,29.62
2023-09-06T18:33:52.659Z,29.11
2023-09-06T18:36:20.600Z,29.12
2023-09-06T18:38:49.380Z,29.65
2023-09-06T18:41:18.665Z,29.57
2023-09-06T18:43:47.491Z,29.12
2023-09-06T18:46:17.449Z,28.17
2023-09-06T18:48:50.861Z,27.81
2023-09-06T18:51:23.938Z,28.10
2023-09-06T18:54:06.219Z,28.16
2023-09-06T18:56:35.941Z,27.89
2023-09-06T18:59:08.216Z,27.74
2023-09-06T19:01:36.983Z,28.15
2023-09-06T19:04:07.159Z,27.88
2023-09-06T19:06:35.779Z,28.20
2023-09-06T19:09:09.505Z,27.95
2023-09-06T19:11:38.145Z,28.19
2023-09-06T19:14:05.984Z,28.29
2023-09-06T19:16:34.265Z,28.14
2023-09-06T19:19:02.453Z,28.18
2023-09-06T19:21:31.391Z,27.47
2023-09-06T19:24:01.540Z,27.41
2023-09-06T19:26:29.437Z,27.81
2023-09-06T19:28:59.726Z,26.84
2023-09-06T19:31:28.306Z,26.96
2023-09-06T19:33:59.902Z,27.05
2023-09-06T19:36:28.700Z,26.80
2023-09-06T19:38:56.856Z,26.81
2023-09-06T19:41:25.266Z,27.12
2023-09-06T19:43:53.534Z,26.97
2023-09-06T19:46:24.734Z,27.11
2023-09-06T19:49:05.785Z,26.95
2023-09-06T19:51:36.497Z,27.18
2023-09-06T19:54:06.260Z,26.86
2023-09-06T19:56:34.308Z,26.84
2023-09-06T19:59:08.176Z,26.76
2023-09-06T20:01:41.121Z,26.62
2023-09-06T20:04:10.001Z,26.71
2023-09-06T20:06:41.125Z,27.04
2023-09-06T20:09:09.427Z,26.62
2023-09-06T20:11:38.139Z,26.61
2023-09-06T20:14:09.574Z,26.23
2023-09-06T20:16:39.323Z,26.58
2023-09-06T20:19:06.810Z,26.09
2023-09-06T20:21:36.001Z,26.83
2023-09-06T20:24:04.584Z,25.90
2023-09-06T20:26:32.257Z,26.20
2023-09-06T20:29:01.720Z,25.76
2023-09-06T20:31:30.277Z,26.23
2023-09-06T20:33:58.640Z,26.45
2023-09-06T20:36:26.166Z,26.41
2023-09-06T20:38:54.744Z,26.58
2023-09-06T20:41:22.922Z,26.18
2023-09-06T20:43:50.909Z,25.60
2023-09-06T20:46:19.237Z,26.20
2023-09-06T20:48:47.489Z,26.39
2023-09-06T20:51:15.587Z,25.76
2023-09-06T20:53:44.788Z,25.67
2023-09-06T20:56:13.009Z,25.10
2023-09-06T20:58:40.761Z,25.59
2023-09-06T21:01:12.661Z,25.87
2023-09-06T21:03:39.894Z,25.50
2023-09-06T21:06:07.474Z,25.27
2023-09-06T21:08:34.749Z,25.37
2023-09-06T21:11:02.695Z,25.06
2023-09-06T21:13:30.170Z,24.64
2023-09-06T21:16:01.364Z,24.92
2023-09-06T21:18:29.363Z,25.84
2023-09-06T21:20:57.460Z,24.89
2023-09-06T21:23:24.695Z,24.40
2023-09-06T21:25:51.989Z,24.99
2023-09-06T21:28:19.957Z,25.63
2023-09-06T21:30:47.389Z,26.09
2023-09-06T21:33:14.834Z,26.02
2023-09-06T21:35:49.766Z,24.69
2023-09-06T21:38:17.001Z,25.33
2023-09-06T21:40:44.932Z,25.63
2023-09-06T21:43:18.501Z,25.29
2023-09-06T21:45:47.606Z,25.66
2023-09-06T21:48:15.288Z,25.56
2023-09-06T21:50:46.163Z,25.59
2023-09-06T21:53:13.686Z,25.71
2023-09-06T21:55:40.886Z,25.80
2023-09-06T21:58:11.080Z,25.13
2023-09-06T22:00:44.135Z,25.85
2023-09-06T22:03:29.915Z,25.29
2023-09-06T22:06:15.892Z,25.48
2023-09-06T22:09:02.125Z,25.19
2023-09-06T22:11:48.033Z,24.98
2023-09-06T22:14:16.651Z,24.80
2023-09-06T22:16:45.422Z,25.25
2023-09-06T22:19:16.842Z,25.55
2023-09-06T22:21:44.354Z,24.82
2023-09-06T22:24:12.189Z,25.27
2023-09-06T22:26:39.379Z,25.21
2023-09-06T22:29:06.913Z,24.80
2023-09-06T22:31:36.018Z,25.24
2023-09-06T22:34:05.192Z,24.82
2023-09-06T22:36:35.272Z,24.85
2023-09-06T22:39:02.480Z,24.62
2023-09-06T22:41:29.872Z,24.97
2023-09-06T22:43:57.314Z,24.36
2023-09-06T22:46:26.033Z,24.57
2023-09-06T22:48:55.198Z,24.81
2023-09-06T22:51:23.457Z,24.95
2023-09-06T22:53:50.675Z,23.93
2023-09-06T22:56:18.291Z,23.69
2023-09-06T22:58:45.792Z,24.21
2023-09-06T23:01:13.257Z,23.84
2023-09-06T23:03:43.550Z,24.68
2023-09-06T23:06:11.646Z,24.87
2023-09-06T23:08:40.074Z,24.47
2023-09-06T23:11:07.751Z,24.50
2023-09-06T23:13:35.874Z,24.26
2023-09-06T23:16:04.366Z,24.42
2023-09-06T23:18:32.953Z,24.63
2023-09-06T23:21:06.385Z,23.97
2023-09-06T23:23:34.622Z,23.95
2023-09-06T23:26:07.356Z,24.71
2023-09-06T23:28:35.846Z,24.31
2023-09-06T23:31:06.886Z,24.57
2023-09-06T23:33:40.095Z,24.53
2023-09-06T23:36:10.088Z,24.49
2023-09-06T23:38:37.434Z,24.07
2023-09-06T23:41:05.018Z,23.71
2023-09-06T23:43:32.904Z,24.22
2023-09-06T23:46:01.247Z,24.05
2023-09-06T23:48:31.855Z,24.53
2023-09-06T23:50:59.735Z,23.58
2023-09-06T23:53:27.252Z,23.38
2023-09-06T23:55:56.986Z,24.70
2023-09-06T23:58:24.610Z,24.97
